Time;durP1;ratioP1;P1;durP2;ratioP2;P2;SDS_P1;SDS_P2;PMS_P1;PMS_P2;Temp;Humidity;BMP_temperature;BMP_pressure;BME280_temperature;BME280_humidity;BME280_pressure;Samples;Min_cycle;Max_cycle;Signal;HPM_P1;HPM_P2
2021/01/28 00:02:05;;;;;;;19.15;10.40;;;;;;;1.40;92.60;98559.72;4973634;28;20567;-71
2021/01/28 00:04:30;;;;;;;15.70;9.30;;;;;;;1.32;92.48;98554.31;4973635;28;20113;-70
2021/01/28 00:06:55;;;;;;;17.05;9.85;;;;;;;1.42;92.46;98559.59;4973845;28;20405;-71
2021/01/28 00:09:21;;;;;;;19.20;9.50;;;;;;;1.36;92.35;98555.69;4994960;28;20118;-71
2021/01/28 00:11:46;;;;;;;13.95;9.60;;;;;;;1.35;92.19;98556.69;4993556;28;20042;-70
2021/01/28 00:14:11;;;;;;;17.48;9.98;;;;;;;1.43;92.51;98563.91;4980149;28;20041;-70
2021/01/28 00:16:36;;;;;;;14.77;8.57;;;;;;;1.43;92.18;98564.75;4976959;28;20042;-70
2021/01/28 00:19:02;;;;;;;17.33;9.05;;;;;;;1.38;92.17;98545.72;4978598;28;20109;-71
2021/01/28 00:21:27;;;;;;;13.57;8.05;;;;;;;1.48;92.04;98553.66;4977566;28;20031;-70
2021/01/28 00:23:53;;;;;;;14.05;8.32;;;;;;;1.41;92.38;98555.22;4980188;28;20444;-70
2021/01/28 00:26:18;;;;;;;14.90;8.50;;;;;;;1.42;92.40;98557.75;4978913;28;20164;-71
2021/01/28 00:28:44;;;;;;;15.05;8.20;;;;;;;1.50;92.12;98562.34;4986589;28;20085;-70
2021/01/28 00:31:10;;;;;;;12.82;8.02;;;;;;;1.53;92.11;98559.34;4977483;28;20034;-70
2021/01/28 00:33:35;;;;;;;17.85;8.27;;;;;;;1.49;91.59;98531.31;4991360;28;20035;-70
2021/01/28 00:36:00;;;;;;;13.23;7.53;;;;;;;1.44;91.88;98545.13;4980740;28;20031;-70
2021/01/28 00:38:29;;;;;;;14.30;7.88;;;;;;;1.50;92.67;98557.84;4977187;28;20041;-71
2021/01/28 00:40:55;;;;;;;13.37;7.77;;;;;;;1.53;92.23;98549.53;4979875;28;20027;-71
2021/01/28 00:43:21;;;;;;;13.35;8.52;;;;;;;1.57;91.83;98538.56;4995170;28;20030;-71
2021/01/28 00:45:47;;;;;;;16.20;8.23;;;;;;;1.67;92.01;98540.16;4992040;28;20034;-70
2021/01/28 00:48:13;;;;;;;15.80;8.82;;;;;;;1.60;91.61;98532.91;4991592;28;20038;-71
2021/01/28 00:50:40;;;;;;;15.20;8.65;;;;;;;1.68;91.50;98533.00;5000862;28;20030;-71
2021/01/28 00:53:09;;;;;;;17.52;8.95;;;;;;;1.68;91.53;98527.69;4995968;28;20042;-71
2021/01/28 00:55:34;;;;;;;17.40;9.43;;;;;;;1.62;91.42;98525.59;4995545;28;20034;-71
2021/01/28 00:58:00;;;;;;;17.05;9.50;;;;;;;1.68;91.64;98515.16;4977133;28;20043;-71
2021/01/28 01:00:37;;;;;;;14.25;8.52;;;;;;;1.68;90.98;98519.66;4976324;28;20096;-71
2021/01/28 01:03:03;;;;;;;14.40;8.85;;;;;;;1.70;91.05;98517.66;4977437;28;20069;-71
2021/01/28 01:05:32;;;;;;;15.23;9.05;;;;;;;1.72;91.26;98518.34;4994599;28;20027;-71
2021/01/28 01:07:58;;;;;;;18.50;9.45;;;;;;;1.61;91.04;98490.09;4986711;28;20542;-71
2021/01/28 01:10:23;;;;;;;14.02;8.05;;;;;;;1.73;91.08;98517.38;4995220;28;20056;-71
2021/01/28 01:12:49;;;;;;;14.30;8.75;;;;;;;1.61;90.67;98515.94;4983735;28;20484;-71
2021/01/28 01:15:14;;;;;;;14.88;8.75;;;;;;;1.58;91.20;98506.41;5004536;28;20053;-71
2021/01/28 01:17:41;;;;;;;17.80;9.32;;;;;;;1.69;91.40;98502.66;4977106;28;20425;-71
2021/01/28 01:20:07;;;;;;;17.10;8.60;;;;;;;1.60;90.93;98508.91;4991618;28;20036;-72
2021/01/28 01:22:32;;;;;;;18.27;10.07;;;;;;;1.52;91.45;98499.88;4976153;28;20567;-72
2021/01/28 01:24:58;;;;;;;17.40;9.15;;;;;;;1.56;91.11;98519.06;4975002;28;20035;-71
2021/01/28 01:27:23;;;;;;;14.20;8.30;;;;;;;1.61;91.14;98507.94;4987574;28;20392;-71
2021/01/28 01:29:48;;;;;;;15.10;8.88;;;;;;;1.54;90.95;98491.69;5009312;28;20035;-72
2021/01/28 01:32:14;;;;;;;16.83;8.75;;;;;;;1.71;90.80;98500.69;4982748;28;20042;-71
2021/01/28 01:34:39;;;;;;;13.55;8.50;;;;;;;1.67;91.09;98502.81;4975332;28;20038;-71
2021/01/28 01:37:04;;;;;;;14.18;8.80;;;;;;;1.65;90.90;98479.97;4976881;28;20050;-71
2021/01/28 01:39:29;;;;;;;17.48;9.13;;;;;;;1.64;91.00;98491.63;4990711;28;20049;-71
2021/01/28 01:41:55;;;;;;;15.57;9.23;;;;;;;1.63;90.99;98487.31;4976650;28;20042;-70
2021/01/28 01:44:20;;;;;;;21.67;9.93;;;;;;;1.54;91.15;98476.53;4976975;28;20487;-69
2021/01/28 01:47:09;;;;;;;17.80;10.00;;;;;;;1.50;90.87;98477.03;4974913;28;20042;-69
2021/01/28 01:49:34;;;;;;;16.20;8.80;;;;;;;1.51;91.00;98478.69;4994500;28;20026;-71
2021/01/28 01:52:00;;;;;;;14.63;9.27;;;;;;;1.52;91.18;98486.53;4990983;28;20122;-70
2021/01/28 01:54:33;;;;;;;20.52;9.60;;;;;;;1.52;91.16;98486.53;4990197;28;20263;-71
2021/01/28 01:57:03;;;;;;;16.65;9.38;;;;;;;1.56;91.43;98483.56;4985266;28;20034;-70
2021/01/28 01:59:36;;;;;;;18.45;9.20;;;;;;;1.60;90.88;98474.25;4993338;28;20011;-70
2021/01/28 02:02:05;;;;;;;16.10;8.73;;;;;;;1.65;91.22;98463.97;4992222;28;20031;-72
2021/01/28 02:04:32;;;;;;;17.05;9.25;;;;;;;1.60;90.89;98456.44;4984488;28;20034;-70
2021/01/28 02:07:03;;;;;;;14.73;8.63;;;;;;;1.65;90.91;98461.28;4975647;28;20026;-70
2021/01/28 02:09:29;;;;;;;16.73;9.18;;;;;;;1.59;90.87;98456.59;4990645;28;20416;-70
2021/01/28 02:11:54;;;;;;;14.75;8.55;;;;;;;1.66;90.80;98457.66;4980117;28;20023;-70
2021/01/28 02:14:20;;;;;;;14.98;8.45;;;;;;;1.72;90.94;98447.19;4988715;28;20022;-70
2021/01/28 02:16:53;;;;;;;13.73;7.72;;;;;;;1.73;90.82;98440.03;4993401;28;20489;-71
2021/01/28 02:19:25;;;;;;;12.30;6.80;;;;;;;1.74;90.39;98439.03;4968878;28;20387;-70
2021/01/28 02:21:51;;;;;;;11.60;6.75;;;;;;;1.51;90.57;98404.88;4974537;28;20069;-69
2021/01/28 02:24:27;;;;;;;13.23;6.60;;;;;;;1.77;90.44;98432.56;4977426;28;20030;-70
2021/01/28 02:26:54;;;;;;;12.65;6.47;;;;;;;1.77;90.21;98421.88;4991274;28;20023;-70
2021/01/28 02:29:21;;;;;;;17.50;7.05;;;;;;;1.81;90.28;98410.75;4983157;28;20034;-70
2021/01/28 02:31:49;;;;;;;10.90;6.47;;;;;;;1.79;90.51;98409.25;4973628;28;20130;-69
2021/01/28 02:34:15;;;;;;;12.35;7.13;;;;;;;1.64;90.06;98400.97;4975385;28;20450;-70
2021/01/28 02:36:44;;;;;;;12.05;7.13;;;;;;;1.63;90.66;98399.31;4989421;28;20022;-70
2021/01/28 02:39:14;;;;;;;14.73;7.20;;;;;;;1.59;90.72;98379.28;4987902;28;20030;-72
2021/01/28 02:41:41;;;;;;;12.93;6.53;;;;;;;1.72;90.67;98393.00;4984338;28;20370;-71
2021/01/28 02:44:07;;;;;;;12.07;6.55;;;;;;;1.68;90.43;98379.16;5003163;28;20026;-71
2021/01/28 02:46:32;;;;;;;11.65;6.10;;;;;;;1.70;90.58;98390.53;4990853;28;20031;-71
2021/01/28 02:48:58;;;;;;;12.95;6.88;;;;;;;1.66;90.48;98388.31;4977333;28;20035;-73
2021/01/28 02:51:24;;;;;;;11.10;6.97;;;;;;;1.70;90.74;98389.66;4973796;28;20500;-70
2021/01/28 02:53:52;;;;;;;11.93;6.65;;;;;;;1.51;91.06;98374.72;4974152;28;20035;-71
2021/01/28 02:56:22;;;;;;;10.35;6.55;;;;;;;1.77;90.48;98396.03;4979585;28;20022;-71
2021/01/28 02:58:49;;;;;;;12.90;6.82;;;;;;;1.72;90.49;98379.69;4989784;28;20022;-71
2021/01/28 03:01:15;;;;;;;11.32;6.90;;;;;;;1.81;90.38;98373.41;4978546;28;20113;-71
2021/01/28 03:03:40;;;;;;;10.30;5.70;;;;;;;1.81;90.16;98376.09;4993510;28;20053;-72
2021/01/28 03:06:07;;;;;;;14.98;7.07;;;;;;;1.74;89.95;98362.53;4986433;28;20523;-71
2021/01/28 03:08:33;;;;;;;13.40;7.10;;;;;;;1.67;90.29;98356.16;4985261;28;20382;-72
2021/01/28 03:10:58;;;;;;;13.05;6.45;;;;;;;1.82;89.79;98361.75;4973710;28;20027;-71
2021/01/28 03:13:24;;;;;;;10.90;6.32;;;;;;;1.78;90.28;98354.22;4988517;28;20027;-71
2021/01/28 03:15:50;;;;;;;11.77;6.43;;;;;;;1.67;90.02;98331.31;4979675;28;20051;-70
2021/01/28 03:18:16;;;;;;;9.90;5.65;;;;;;;1.79;90.09;98343.41;4981735;28;20035;-71
2021/01/28 03:20:41;;;;;;;10.80;6.45;;;;;;;1.79;90.04;98340.72;4978639;28;20038;-70
2021/01/28 03:23:08;;;;;;;12.07;6.60;;;;;;;1.71;90.06;98332.69;4973617;28;20388;-72
2021/01/28 03:25:33;;;;;;;13.40;6.70;;;;;;;1.72;90.27;98329.00;4972838;28;20034;-71
2021/01/28 03:27:59;;;;;;;10.25;6.25;;;;;;;1.56;90.21;98323.59;4973212;28;20082;-72
2021/01/28 03:30:29;;;;;;;9.98;5.95;;;;;;;1.79;90.81;98340.72;4983153;28;20030;-72
2021/01/28 03:32:55;;;;;;;11.85;6.07;;;;;;;1.86;90.65;98348.91;4979746;28;20054;-71
2021/01/28 03:35:22;;;;;;;9.60;5.60;;;;;;;1.88;89.95;98329.09;4972040;28;20093;-72
2021/01/28 03:37:48;;;;;;;9.07;5.18;;;;;;;1.90;89.91;98343.09;4972533;28;20034;-72
2021/01/28 03:40:14;;;;;;;11.93;6.47;;;;;;;1.82;90.22;98331.56;4975498;28;20035;-72
2021/01/28 03:42:39;;;;;;;8.63;5.28;;;;;;;1.71;90.17;98309.53;4987923;28;20044;-71
2021/01/28 03:45:07;;;;;;;9.27;5.43;;;;;;;1.85;89.88;98310.75;4972938;28;20587;-71
2021/01/28 03:47:33;;;;;;;8.88;4.68;;;;;;;1.82;90.25;98299.56;4971585;28;20118;-72
2021/01/28 03:49:58;;;;;;;11.10;5.22;;;;;;;1.83;90.20;98302.06;4982818;28;20023;-71
2021/01/28 03:52:24;;;;;;;6.93;3.90;;;;;;;1.98;89.92;98286.28;4975283;28;20046;-71
2021/01/28 03:54:49;;;;;;;6.80;4.40;;;;;;;1.98;89.41;98279.09;4977580;28;20026;-71
2021/01/28 03:57:14;;;;;;;9.43;4.40;;;;;;;1.98;89.52;98275.63;4979032;28;20033;-71
2021/01/28 03:59:40;;;;;;;10.20;4.93;;;;;;;1.81;90.04;98253.41;4978360;28;20038;-71
2021/01/28 04:02:05;;;;;;;10.80;4.10;;;;;;;1.97;89.91;98263.28;4995233;28;20030;-71
2021/01/28 04:04:31;;;;;;;8.57;4.75;;;;;;;1.89;90.23;98253.41;4990771;28;20073;-71
2021/01/28 04:06:56;;;;;;;5.85;3.95;;;;;;;1.96;89.64;98238.44;4983864;28;20038;-71
2021/01/28 04:09:21;;;;;;;5.78;3.70;;;;;;;1.90;89.44;98235.56;4982431;28;20066;-71
2021/01/28 04:11:47;;;;;;;8.77;4.95;;;;;;;1.95;89.53;98238.59;4975564;28;20122;-72
2021/01/28 04:14:12;;;;;;;8.70;4.90;;;;;;;1.82;90.20;98224.88;4976623;28;20050;-72
2021/01/28 04:16:38;;;;;;;9.75;5.13;;;;;;;1.87;89.96;98231.41;4976793;28;20029;-72
2021/01/28 04:19:03;;;;;;;7.15;4.07;;;;;;;1.94;89.56;98229.75;4979677;28;20042;-72
2021/01/28 04:21:28;;;;;;;8.13;4.22;;;;;;;1.92;89.72;98213.06;4976536;28;20101;-71
2021/01/28 04:23:53;;;;;;;7.38;4.63;;;;;;;1.95;89.45;98217.25;4976913;28;20039;-71
2021/01/28 04:26:19;;;;;;;9.57;5.45;;;;;;;1.89;89.61;98197.41;4985294;28;20039;-71
2021/01/28 04:28:44;;;;;;;8.48;4.68;;;;;;;1.96;89.36;98186.91;4990956;28;20066;-71
2021/01/28 04:31:09;;;;;;;7.43;4.00;;;;;;;1.95;89.56;98196.75;4978632;28;20031;-70
2021/01/28 04:33:35;;;;;;;11.15;4.60;;;;;;;1.86;89.83;98186.22;4977076;28;20019;-71
2021/01/28 04:36:02;;;;;;;7.35;4.45;;;;;;;1.86;90.04;98192.41;4978393;28;20027;-79
2021/01/28 04:38:27;;;;;;;9.35;4.38;;;;;;;1.87;89.84;98183.38;4974339;28;20027;-78
2021/01/28 04:41:25;;;;;;;7.20;4.10;;;;;;;1.80;89.90;98158.34;4991970;28;20371;-78
2021/01/28 04:43:52;;;;;;;6.70;4.05;;;;;;;1.98;89.59;98183.06;4986886;28;20030;-79
2021/01/28 04:46:40;;;;;;;6.50;3.60;;;;;;;2.00;89.21;98160.75;4985828;28;20034;-79
2021/01/28 04:49:08;;;;;;;5.07;3.10;;;;;;;2.21;89.14;98174.44;4976974;28;20026;-81
2021/01/28 04:51:35;;;;;;;6.22;3.78;;;;;;;2.15;89.38;98167.09;4967261;28;20386;-79
2021/01/28 04:54:24;;;;;;;8.63;4.10;;;;;;;2.25;89.14;98156.25;4976262;28;20062;-77
2021/01/28 04:56:51;;;;;;;4.38;2.65;;;;;;;2.23;89.49;98144.91;4977753;28;20026;-79
2021/01/28 04:59:42;;;;;;;6.97;3.92;;;;;;;2.25;89.11;98137.56;4974826;28;20057;-76
2021/01/28 05:02:14;;;;;;;7.10;4.07;;;;;;;2.12;89.36;98124.72;4986694;28;20031;-76
2021/01/28 05:04:43;;;;;;;6.78;4.20;;;;;;;2.09;89.66;98123.22;4962944;28;20026;-70
2021/01/28 05:07:10;;;;;;;7.55;4.00;;;;;;;1.96;90.06;98107.72;4975770;28;20485;-70
2021/01/28 05:09:36;;;;;;;7.03;4.05;;;;;;;2.06;90.05;98104.88;4976677;28;20042;-69
2021/01/28 05:12:02;;;;;;;8.10;5.22;;;;;;;2.13;89.76;98103.22;4975667;28;20027;-69
2021/01/28 05:14:30;;;;;;;8.95;4.35;;;;;;;2.14;89.65;98093.38;4975693;28;20031;-74
2021/01/28 05:17:04;;;;;;;7.00;3.93;;;;;;;2.21;89.62;98098.88;4974552;28;20497;-76
2021/01/28 05:19:37;;;;;;;6.97;3.80;;;;;;;2.25;89.84;98095.69;4968709;28;20027;-76
2021/01/28 05:22:28;;;;;;;6.85;3.28;;;;;;;2.27;89.35;98090.19;4990307;28;20169;-78
2021/01/28 05:24:57;;;;;;;6.55;3.40;;;;;;;2.22;89.43;98072.00;4966375;28;20042;-77
2021/01/28 05:27:35;;;;;;;6.05;3.78;;;;;;;2.30;89.64;98081.84;4970484;28;20082;-71
2021/01/28 05:30:04;;;;;;;7.00;3.90;;;;;;;2.34;89.39;98085.88;4974735;28;20501;-69
2021/01/28 05:32:30;;;;;;;6.40;3.88;;;;;;;2.33;89.39;98077.03;4978423;28;20108;-71
2021/01/28 05:35:19;;;;;;;6.25;3.58;;;;;;;2.35;89.74;98076.84;4976143;28;20075;-69
2021/01/28 05:37:45;;;;;;;;;;;;;;;2.30;89.79;98082.69;4975309;28;20031;-75
2021/01/28 05:40:25;;;;;;;6.60;3.55;;;;;;;2.27;90.03;98071.50;4973956;28;19920;-75
2021/01/28 05:42:52;;;;;;;8.50;4.63;;;;;;;2.30;89.80;98082.69;4967380;28;20042;-76
2021/01/28 05:45:32;;;;;;;8.73;4.53;;;;;;;2.19;90.45;98081.19;4979658;28;20022;-75
2021/01/28 05:48:27;;;;;;;9.63;4.88;;;;;;;2.30;90.22;98077.34;4973798;28;20416;-74
2021/01/28 05:51:20;;;;;;;9.70;5.22;;;;;;;2.27;90.10;98071.50;4974526;28;20493;-75
2021/01/28 05:54:05;;;;;;;7.32;4.43;;;;;;;2.28;90.31;98073.16;4989899;28;20034;-76
2021/01/28 05:56:35;;;;;;;10.88;4.93;;;;;;;2.17;90.10;98045.00;4971186;28;20027;-80
2021/01/28 05:59:13;;;;;;;9.35;4.95;;;;;;;2.25;90.63;98052.16;4982956;28;20038;-77
2021/01/28 06:02:06;;;;;;;7.90;4.22;;;;;;;2.32;90.59;98051.31;4963923;28;20030;-77
2021/01/28 06:04:46;;;;;;;11.70;5.00;;;;;;;2.20;90.67;98023.31;4971625;28;20035;-78
2021/01/28 06:07:39;;;;;;;11.65;4.72;;;;;;;2.28;90.53;98034.00;4976431;28;20544;-72
2021/01/28 06:10:31;;;;;;;9.13;4.45;;;;;;;2.26;90.67;98027.97;4973067;28;20034;-71
2021/01/28 06:13:06;;;;;;;8.63;4.63;;;;;;;2.32;90.33;98010.47;4962189;28;20042;-72
2021/01/28 06:15:37;;;;;;;9.90;4.18;;;;;;;2.51;90.18;98022.56;4970030;28;20125;-71
2021/01/28 06:18:02;;;;;;;7.30;4.00;;;;;;;2.49;89.88;98016.56;4973027;28;20026;-77
2021/01/28 06:20:41;;;;;;;7.20;3.95;;;;;;;2.50;90.11;97997.72;4990762;28;20031;-78
2021/01/28 06:23:36;;;;;;;8.95;4.00;;;;;;;2.58;89.90;98019.06;4974129;28;20054;-76
2021/01/28 06:26:19;;;;;;;5.93;3.60;;;;;;;2.52;90.26;98003.72;4974556;28;20086;-73
2021/01/28 06:29:06;;;;;;;5.47;3.35;;;;;;;2.59;89.60;97995.84;4988256;28;20109;-68
2021/01/28 06:31:47;;;;;;;7.45;3.83;;;;;;;2.57;90.43;98000.56;4977077;28;20022;-77
2021/01/28 06:34:13;;;;;;;6.80;3.53;;;;;;;2.54;90.13;97984.84;4990430;28;20066;-69
2021/01/28 06:36:54;;;;;;;7.25;3.60;;;;;;;2.47;90.29;97981.22;4973516;28;20050;-74
2021/01/28 06:39:31;;;;;;;6.50;3.72;;;;;;;2.62;90.69;97974.16;4973354;28;20058;-74
2021/01/28 06:42:03;;;;;;;7.13;4.00;;;;;;;2.55;90.90;97960.66;4974126;28;20034;-75
2021/01/28 06:44:45;;;;;;;7.35;3.72;;;;;;;2.60;90.69;97963.66;4957122;28;20034;-75
2021/01/28 06:47:22;;;;;;;5.32;2.80;;;;;;;2.58;90.83;97967.50;4970004;28;20049;-74
2021/01/28 06:50:12;;;;;;;6.28;3.40;;;;;;;2.62;90.64;97966.16;4973141;28;20050;-74
2021/01/28 06:52:49;;;;;;;6.40;3.65;;;;;;;2.62;90.67;97952.81;4968256;28;20078;-77
2021/01/28 06:55:29;;;;;;;5.88;3.53;;;;;;;2.70;90.72;97949.22;4973087;28;20491;-74
2021/01/28 06:58:25;;;;;;;5.90;3.65;;;;;;;2.73;90.52;97939.06;4973441;28;20039;-75
2021/01/28 07:01:25;;;;;;;5.95;3.10;;;;;;;2.71;90.15;97935.72;4987331;28;20030;-75
2021/01/28 07:04:02;;;;;;;7.38;3.30;;;;;;;2.69;91.12;97932.38;4972516;28;20497;-70
2021/01/28 07:06:51;;;;;;;5.10;4.00;;;;;;;2.64;91.13;97921.38;4989092;28;20031;-69
2021/01/28 07:09:47;;;;;;;6.68;3.88;;;;;;;2.74;90.63;97931.88;4970713;28;20050;-71
2021/01/28 07:12:19;;;;;;;7.00;3.40;;;;;;;2.74;90.35;97919.34;4984073;28;20384;-75
2021/01/28 07:14:49;;;;;;;6.70;3.78;;;;;;;2.69;90.62;97916.34;4976274;28;20520;-78
2021/01/28 07:17:29;;;;;;;9.18;3.95;;;;;;;2.58;90.62;97882.88;4960998;28;20073;-74
2021/01/28 07:20:03;;;;;;;5.75;3.90;;;;;;;2.67;91.40;97907.69;4968806;28;20374;-75
2021/01/28 07:22:38;;;;;;;10.43;4.28;;;;;;;2.62;91.05;97905.56;4964892;28;20030;-73
2021/01/28 07:25:23;;;;;;;7.03;3.92;;;;;;;2.62;91.19;97894.06;4991146;28;20031;-75
2021/01/28 07:28:13;;;;;;;8.13;5.00;;;;;;;2.58;91.62;97896.22;4973218;28;20480;-75
2021/01/28 07:30:44;;;;;;;7.85;4.38;;;;;;;2.55;91.53;97893.09;4969697;28;20079;-76
2021/01/28 07:33:25;;;;;;;7.20;4.35;;;;;;;2.52;91.85;97890.78;4958704;28;20507;-75
2021/01/28 07:35:58;;;;;;;7.90;4.30;;;;;;;2.45;91.31;97847.91;4971907;28;20026;-75
2021/01/28 07:38:26;;;;;;;7.55;4.40;;;;;;;2.57;91.77;97859.84;4975137;28;20034;-73
2021/01/28 07:41:05;;;;;;;6.70;4.32;;;;;;;2.58;91.84;97853.50;4986659;28;20030;-75
2021/01/28 07:43:41;;;;;;;7.07;4.25;;;;;;;2.51;91.86;97843.69;4973843;28;20034;-73
2021/01/28 07:46:14;;;;;;;7.13;4.25;;;;;;;2.61;92.10;97855.00;4973751;28;20035;-75
2021/01/28 07:48:40;;;;;;;12.55;6.18;;;;;;;2.64;92.30;97846.63;4986426;28;20114;-69
2021/01/28 07:51:48;;;;;;;8.07;4.13;;;;;;;2.68;92.23;97847.13;4963468;28;20030;-69
2021/01/28 07:54:22;;;;;;;10.68;5.03;;;;;;;2.69;92.09;97846.09;4989921;28;20113;-72
2021/01/28 07:56:49;;;;;;;7.28;4.45;;;;;;;2.73;92.20;97826.88;4992263;28;20022;-69
2021/01/28 07:59:23;;;;;;;10.20;4.88;;;;;;;2.80;92.33;97845.69;4991048;28;20035;-69
2021/01/28 08:01:56;;;;;;;9.38;4.50;;;;;;;2.74;92.81;97841.88;4990605;28;20448;-69
2021/01/28 08:04:33;;;;;;;10.18;4.75;;;;;;;2.90;92.42;97829.44;4974992;28;20065;-70
2021/01/28 08:07:00;;;;;;;10.95;4.63;;;;;;;2.92;92.45;97841.59;4975400;28;20031;-69
2021/01/28 08:09:26;;;;;;;15.18;5.03;;;;;;;2.91;92.52;97825.72;4974018;28;20153;-69
2021/01/28 08:11:56;;;;;;;9.82;5.28;;;;;;;2.88;92.23;97810.06;4968172;28;20118;-70
2021/01/28 08:14:32;;;;;;;8.27;4.43;;;;;;;2.90;92.04;97803.53;4970250;28;20023;-69
2021/01/28 08:16:58;;;;;;;6.95;4.10;;;;;;;2.76;91.78;97778.44;4968045;28;20232;-70
2021/01/28 08:19:27;;;;;;;6.55;4.18;;;;;;;2.97;92.05;97792.97;4966211;28;20054;-72
2021/01/28 08:22:23;;;;;;;6.63;4.20;;;;;;;3.01;92.61;97791.59;4960894;28;20041;-72
2021/01/28 08:24:55;;;;;;;9.10;4.22;;;;;;;2.98;92.56;97775.91;4968395;28;20042;-75
2021/01/28 08:27:30;;;;;;;8.68;4.20;;;;;;;3.06;92.02;97786.53;4973492;28;20113;-69
2021/01/28 08:30:16;;;;;;;6.82;3.95;;;;;;;3.05;92.26;97768.84;4976056;28;20078;-77
2021/01/28 08:32:43;;;;;;;7.10;3.90;;;;;;;3.01;92.21;97757.72;4965231;28;20022;-75
2021/01/28 08:35:22;;;;;;;6.72;3.50;;;;;;;3.00;92.20;97731.16;4962838;28;20075;-76
2021/01/28 08:37:47;;;;;;;5.50;2.60;;;;;;;3.12;92.12;97756.44;4955314;28;20085;-77
2021/01/28 08:40:17;;;;;;;9.10;4.15;;;;;;;3.17;92.08;97746.03;4958409;29;20027;-77
2021/01/28 08:42:42;;;;;;;9.73;4.40;;;;;;;3.16;92.85;97735.50;4961654;28;20110;-78
2021/01/28 08:45:10;;;;;;;7.32;3.90;;;;;;;3.14;92.97;97735.69;4994711;28;20082;-78
2021/01/28 08:47:36;;;;;;;6.93;3.72;;;;;;;3.11;92.82;97720.00;4975620;28;20121;-74
2021/01/28 08:50:13;;;;;;;6.78;4.10;;;;;;;3.14;92.72;97710.81;4963086;28;20434;-73
2021/01/28 08:52:39;;;;;;;9.10;4.18;;;;;;;3.13;92.73;97709.97;4973844;28;20081;-72
2021/01/28 08:55:19;;;;;;;7.22;3.60;;;;;;;3.13;92.95;97693.13;4971537;28;20026;-73
2021/01/28 08:57:44;;;;;;;5.35;3.05;;;;;;;3.23;92.79;97672.31;4976262;28;20030;-72
2021/01/28 09:00:12;;;;;;;8.55;4.53;;;;;;;3.25;92.39;97678.31;4961183;28;20411;-74
2021/01/28 09:02:44;;;;;;;7.53;4.45;;;;;;;3.38;92.59;97674.94;4959576;28;20515;-75
2021/01/28 09:05:25;;;;;;;6.95;4.15;;;;;;;3.39;92.56;97676.63;4989783;28;20695;-75
2021/01/28 09:08:02;;;;;;;6.68;3.80;;;;;;;3.44;92.72;97677.72;4975129;28;20086;-72
2021/01/28 09:10:41;;;;;;;6.10;3.97;;;;;;;3.31;92.42;97648.16;4975434;28;20026;-69
2021/01/28 09:13:29;;;;;;;5.95;3.50;;;;;;;3.28;92.25;97651.19;4961027;28;20515;-69
2021/01/28 09:16:17;;;;;;;5.97;3.30;;;;;;;3.39;92.54;97641.88;4971330;28;20554;-70
2021/01/28 09:18:49;;;;;;;6.00;3.63;;;;;;;3.36;92.77;97647.59;4966873;28;20116;-71
2021/01/28 09:21:17;;;;;;;8.25;3.53;;;;;;;3.41;92.55;97637.16;4974528;28;20170;-73
2021/01/28 09:24:15;;;;;;;6.88;3.60;;;;;;;3.58;92.12;97638.59;4992546;28;20035;-73
2021/01/28 09:26:40;;;;;;;9.25;3.58;;;;;;;3.55;92.77;97633.63;4973658;28;20037;-70
2021/01/28 09:29:32;;;;;;;5.25;3.08;;;;;;;3.57;92.57;97618.22;4974792;28;20031;-72
2021/01/28 09:32:28;;;;;;;4.78;2.58;;;;;;;3.63;92.57;97614.78;4963235;28;20097;-74
2021/01/28 09:35:16;;;;;;;8.13;3.42;;;;;;;3.67;92.39;97624.13;4963640;28;20485;-73
2021/01/28 09:37:47;;;;;;;7.63;3.53;;;;;;;3.69;93.04;97619.41;4990869;28;20062;-75
2021/01/28 09:40:41;;;;;;;5.07;3.30;;;;;;;3.71;92.87;97620.03;4977945;28;20081;-74
2021/01/28 09:43:29;;;;;;;8.52;4.03;;;;;;;3.72;93.07;97618.19;4974773;28;20496;-75
2021/01/28 09:46:19;;;;;;;8.57;4.20;;;;;;;3.78;92.34;97611.25;4975993;28;20121;-75
2021/01/28 09:48:49;;;;;;;7.07;3.33;;;;;;;3.70;92.76;97607.69;4971782;28;20061;-73
2021/01/28 09:51:29;;;;;;;5.07;3.20;;;;;;;3.77;92.78;97604.25;4970391;28;20078;-74
2021/01/28 09:54:16;;;;;;;5.22;3.05;;;;;;;3.87;92.51;97594.06;4963354;28;20074;-72
2021/01/28 09:56:42;;;;;;;5.88;3.05;;;;;;;3.78;92.54;97589.88;4966548;28;20086;-73
2021/01/28 09:59:09;;;;;;;6.28;2.67;;;;;;;3.71;92.75;97587.94;4971147;28;20027;-72
2021/01/28 10:01:35;;;;;;;5.35;3.05;;;;;;;3.85;92.80;97590.75;4971329;28;20059;-74
2021/01/28 10:04:00;;;;;;;4.47;2.45;;;;;;;3.91;92.40;97600.69;4990831;28;20096;-73
2021/01/28 10:06:26;;;;;;;4.70;2.20;;;;;;;4.02;92.64;97602.03;4959466;28;20092;-73
2021/01/28 10:08:51;;;;;;;4.70;2.47;;;;;;;3.95;93.22;97584.03;4974775;28;20027;-73
2021/01/28 10:11:16;;;;;;;5.80;2.58;;;;;;;4.12;92.66;97595.34;4998171;28;20102;-71
2021/01/28 10:13:43;;;;;;;2.75;1.77;;;;;;;4.07;92.39;97579.03;5010824;28;20050;-74
2021/01/28 10:16:08;;;;;;;4.63;2.10;;;;;;;4.19;92.38;97587.34;4995470;28;20090;-72
2021/01/28 10:18:34;;;;;;;4.45;2.17;;;;;;;4.12;93.05;97586.50;4997815;28;20011;-74
2021/01/28 10:21:00;;;;;;;5.75;2.30;;;;;;;4.10;92.73;97584.00;5011495;28;20045;-72
2021/01/28 10:23:25;;;;;;;3.75;2.28;;;;;;;4.23;93.05;97583.28;5004421;28;20075;-70
2021/01/28 10:25:50;;;;;;;3.20;1.80;;;;;;;4.13;92.95;97567.53;4990645;28;20062;-69
2021/01/28 10:28:16;;;;;;;3.88;2.00;;;;;;;4.23;92.52;97577.09;4993220;28;20037;-69
2021/01/28 10:30:41;;;;;;;3.72;2.28;;;;;;;4.10;93.00;97561.75;5008518;28;20082;-70
2021/01/28 10:33:07;;;;;;;6.90;2.50;;;;;;;4.24;92.77;97576.06;4984107;28;20034;-73
2021/01/28 10:35:33;;;;;;;4.65;2.30;;;;;;;4.21;93.11;97569.25;5009661;28;20031;-72
2021/01/28 10:38:00;;;;;;;5.65;3.00;;;;;;;4.21;92.90;97563.06;4990600;28;20041;-70
2021/01/28 10:40:27;;;;;;;7.80;3.00;;;;;;;4.21;93.09;97557.72;4992608;28;20489;-70
2021/01/28 10:42:57;;;;;;;4.45;2.20;;;;;;;4.23;93.30;97556.50;4992835;28;20034;-68
2021/01/28 10:45:27;;;;;;;6.05;2.50;;;;;;;4.33;93.24;97558.88;4988939;28;20117;-71
2021/01/28 10:47:52;;;;;;;3.92;2.05;;;;;;;4.34;93.12;97563.19;4992133;28;20031;-71
2021/01/28 10:50:21;;;;;;;7.18;3.17;;;;;;;4.31;93.60;97542.16;5003187;28;20043;-69
2021/01/28 10:52:47;;;;;;;7.38;2.45;;;;;;;4.31;94.13;97534.94;4977820;28;20030;-67
2021/01/28 10:55:12;;;;;;;4.57;2.50;;;;;;;4.34;93.83;97531.06;4973436;28;20050;-72
2021/01/28 10:57:38;;;;;;;3.97;2.33;;;;;;;4.50;93.56;97535.28;4974442;28;20085;-73
2021/01/28 11:00:05;;;;;;;7.45;2.67;;;;;;;4.53;93.33;97508.94;4972154;28;20031;-72
2021/01/28 11:02:30;;;;;;;4.03;2.10;;;;;;;4.46;93.58;97500.03;4972710;28;20065;-71
2021/01/28 11:04:55;;;;;;;3.97;2.00;;;;;;;4.54;93.34;97502.56;4972543;28;20054;-71
2021/01/28 11:07:21;;;;;;;5.78;2.50;;;;;;;4.60;93.41;97509.78;4972372;28;20428;-71
2021/01/28 11:09:46;;;;;;;3.92;1.98;;;;;;;4.72;93.25;97502.03;4973438;28;20416;-73
2021/01/28 11:12:11;;;;;;;6.97;2.20;;;;;;;4.67;93.66;97483.06;4989064;28;20429;-73
2021/01/28 11:14:37;;;;;;;3.42;2.20;;;;;;;4.78;93.53;97485.16;4971449;28;20519;-69
2021/01/28 11:17:02;;;;;;;3.17;2.10;;;;;;;4.76;93.77;97478.34;4969552;28;20022;-72
2021/01/28 11:19:27;;;;;;;3.53;2.20;;;;;;;4.74;94.24;97445.56;4972717;28;20113;-67
2021/01/28 11:21:53;;;;;;;5.35;2.10;;;;;;;4.81;94.30;97435.72;4970147;28;20110;-66
2021/01/28 11:24:18;;;;;;;3.53;1.88;;;;;;;4.83;93.55;97458.59;4973364;28;20027;-67
2021/01/28 11:26:43;;;;;;;7.80;3.67;;;;;;;4.72;93.94;97428.88;4971592;28;20038;-68
2021/01/28 11:29:09;;;;;;;5.03;2.50;;;;;;;4.90;94.09;97460.47;4973813;28;20022;-68
2021/01/28 11:31:37;;;;;;;3.95;2.42;;;;;;;4.92;94.05;97432.44;4974890;28;20038;-68
2021/01/28 11:34:04;;;;;;;3.35;2.00;;;;;;;5.01;93.96;97441.16;4974053;28;20342;-68
2021/01/28 11:36:31;;;;;;;4.93;2.35;;;;;;;5.04;93.77;97441.56;4971923;28;20031;-69
2021/01/28 11:38:57;;;;;;;4.10;2.05;;;;;;;4.99;94.04;97449.38;4988640;28;20038;-69
2021/01/28 11:41:22;;;;;;;4.13;2.17;;;;;;;5.02;94.19;97448.16;4976831;28;20115;-69
2021/01/28 11:43:47;;;;;;;6.93;2.17;;;;;;;5.07;93.68;97434.97;4977908;28;20033;-69
2021/01/28 11:46:12;;;;;;;4.60;2.13;;;;;;;5.10;93.97;97437.25;4978312;28;20061;-68
2021/01/28 11:48:38;;;;;;;5.40;2.33;;;;;;;5.24;93.89;97438.13;4982702;28;20027;-71
2021/01/28 11:51:04;;;;;;;3.97;1.80;;;;;;;5.35;93.61;97425.97;5000979;28;20040;-69
2021/01/28 11:53:29;;;;;;;4.80;2.05;;;;;;;5.35;93.92;97429.47;4971390;28;20536;-69
2021/01/28 11:55:55;;;;;;;3.65;2.17;;;;;;;5.41;93.50;97420.59;4974738;28;20031;-69
2021/01/28 11:58:20;;;;;;;4.32;1.92;;;;;;;5.51;93.54;97414.84;4968303;28;20027;-69